CheckWX is a tool to help pilots better visualize weather data.  It is not intended as a substitute for an official pre-flight weather briefing.

09:31:08 UTC

KADF METAR
Dexter B Florence Memorial Field Airport
Arkadelphia, Arkansas, USA
Current

35 mins ago

KADF 210856Z AUTO 00000KT 10SM BKN039 OVC065 22/22 A3012 RMK AO2 SLP199 T02220217 53001
Observed
Sep-21 @ 08:56 UTC
Visibility
10 SM
Flight Rules
VFR
Cloud Levels
  • Broken at 3,900' AGL
  • Overcast at 6,500' AGL
Temperature
22°C / 72°F
Dewpoint
22°C / 72°F
Humidity
100%
Altimeter
30.12" Hg
Pressure
1020.02 hPa
Previous

2 hours ago

KADF 210756Z AUTO 00000KT 10SM CLR 22/22 A3010 RMK AO2 SLP195 T02170217 TSNO
Observed
Sep-21 @ 07:56 UTC
Visibility
10 SM
Flight Rules
VFR
Cloud Levels
  • Clear skies
Temperature
22°C / 72°F
Dewpoint
22°C / 72°F
Humidity
100%
Altimeter
30.1" Hg
Pressure
1019.32 hPa
Previous

3 hours ago

KADF 210656Z AUTO 00000KT 10SM BKN095 22/22 A3011 RMK AO2 SLP198 T02170217
Observed
Sep-21 @ 06:56 UTC
Visibility
10 SM
Flight Rules
VFR
Cloud Levels
  • Broken at 9,500' AGL
Temperature
22°C / 72°F
Dewpoint
22°C / 72°F
Humidity
100%
Altimeter
30.11" Hg
Pressure
1019.62 hPa